Time;durP1;ratioP1;P1;durP2;ratioP2;P2;SDS_P1;SDS_P2;PMS_P1;PMS_P2;Temp;Humidity;BMP_temperature;BMP_pressure;BME280_temperature;BME280_humidity;BME280_pressure;Samples;Min_cycle;Max_cycle;Signal;HPM_P1;HPM_P2
2022/01/03 00:02:22;;;;;;;5.72;3.30;;;;;;;11.82;100.00;96385.06;5003687;28;20112;-54
2022/01/03 00:04:51;;;;;;;5.25;3.10;;;;;;;11.86;100.00;96388.25;5001814;28;20073;-53
2022/01/03 00:07:19;;;;;;;4.07;3.58;;;;;;;11.81;100.00;96387.84;5006825;28;20092;-53
2022/01/03 00:09:48;;;;;;;4.25;3.10;;;;;;;11.79;100.00;96384.53;5003195;28;20658;-54
2022/01/03 00:12:20;;;;;;;3.65;3.15;;;;;;;11.73;100.00;96366.66;5004460;28;20159;-51
2022/01/03 00:14:49;;;;;;;4.05;3.20;;;;;;;11.81;100.00;96378.13;5006289;28;20159;-51
2022/01/03 00:17:18;;;;;;;4.03;3.30;;;;;;;11.81;100.00;96386.03;5004060;28;20076;-53
2022/01/03 00:19:47;;;;;;;4.77;3.50;;;;;;;11.85;100.00;96381.31;5001077;28;20069;-54
2022/01/03 00:22:18;;;;;;;5.75;3.50;;;;;;;11.82;100.00;96384.22;5005808;28;20088;-52
2022/01/03 00:24:51;;;;;;;4.47;3.30;;;;;;;11.71;100.00;96368.63;5004943;28;20117;-51
2022/01/03 00:27:22;;;;;;;3.40;3.10;;;;;;;11.92;100.00;96371.78;5005864;28;20479;-51
2022/01/03 00:29:51;;;;;;;;;;;;;;;11.77;100.00;96376.78;5005955;28;20065;-52
2022/01/03 00:32:22;;;;;;;4.90;3.28;;;;;;;11.84;100.00;96377.03;5004154;28;19971;-51
2022/01/03 00:34:52;;;;;;;4.32;3.30;;;;;;;11.69;100.00;96367.94;5003248;28;20074;-49
2022/01/03 00:37:22;;;;;;;4.07;3.38;;;;;;;11.73;100.00;96364.81;5006180;28;20069;-50
2022/01/03 00:39:51;;;;;;;6.78;3.72;;;;;;;11.70;100.00;96382.81;5000088;28;20468;-49
2022/01/03 00:42:21;;;;;;;5.97;3.30;;;;;;;11.55;100.00;96359.59;5002987;28;20062;-48
2022/01/03 00:44:51;;;;;;;4.68;3.35;;;;;;;11.52;100.00;96373.09;5005371;28;20073;-58
2022/01/03 00:47:21;;;;;;;4.25;3.47;;;;;;;11.62;100.00;96380.94;5002583;28;20567;-55
2022/01/03 00:49:50;;;;;;;4.03;3.08;;;;;;;11.42;100.00;96380.25;4997818;28;20084;-52
2022/01/03 00:52:18;;;;;;;3.85;3.45;;;;;;;11.40;100.00;96379.59;5008371;28;20093;-53
2022/01/03 00:54:47;;;;;;;5.28;3.78;;;;;;;11.50;100.00;96382.16;5000744;28;20473;-50
2022/01/03 00:57:24;;;;;;;4.63;3.47;;;;;;;11.43;100.00;96371.38;5003497;28;20070;-48
2022/01/03 00:59:57;;;;;;;3.42;3.13;;;;;;;11.36;100.00;96386.19;5003601;28;20153;-50
2022/01/03 01:02:28;;;;;;;3.78;3.25;;;;;;;11.53;100.00;96376.59;5000470;28;20523;-49
2022/01/03 01:04:57;;;;;;;3.85;3.38;;;;;;;11.44;100.00;96377.50;5007423;28;20081;-50
2022/01/03 01:07:28;;;;;;;3.88;2.95;;;;;;;11.44;100.00;96377.50;5002649;28;20524;-54
2022/01/03 01:09:56;;;;;;;;;;;;;;;11.53;100.00;96372.13;5005105;28;20093;-54
2022/01/03 01:12:25;;;;;;;5.25;3.30;;;;;;;11.63;100.00;96362.31;5005179;28;19975;-59
2022/01/03 01:14:53;;;;;;;5.57;3.40;;;;;;;11.53;100.00;96361.56;5006838;28;20068;-58
2022/01/03 01:17:22;;;;;;;6.45;3.42;;;;;;;11.53;100.00;96374.78;5001540;28;20084;-48
2022/01/03 01:19:52;;;;;;;3.53;3.00;;;;;;;11.49;100.00;96362.81;5004607;28;20057;-55
2022/01/03 01:22:21;;;;;;;4.30;3.55;;;;;;;11.67;100.00;96362.81;5002743;28;20089;-54
2022/01/03 01:25:09;;;;;;;4.70;3.67;;;;;;;11.42;100.00;96356.50;5000472;28;20488;-50
2022/01/03 01:27:47;;;;;;;4.40;3.47;;;;;;;11.38;100.00;96382.38;5002654;28;20066;-54
2022/01/03 01:30:16;;;;;;;3.30;3.00;;;;;;;11.35;100.00;96368.66;5001063;28;20720;-52
2022/01/03 01:32:53;;;;;;;3.20;2.92;;;;;;;11.29;100.00;96345.53;5002860;28;20563;-58
2022/01/03 01:35:24;;;;;;;4.28;3.17;;;;;;;11.26;100.00;96372.22;5002226;28;20069;-50
2022/01/03 01:37:54;;;;;;;6.28;3.38;;;;;;;11.25;100.00;96370.53;5001424;28;20065;-57
2022/01/03 01:40:23;;;;;;;3.17;2.85;;;;;;;11.30;100.00;96353.28;5005132;28;20084;-53
2022/01/03 01:42:53;;;;;;;6.95;3.20;;;;;;;11.32;100.00;96356.59;5007987;28;20472;-51
2022/01/03 01:45:25;;;;;;;4.93;3.33;;;;;;;11.49;100.00;96365.47;5003733;28;20071;-47
2022/01/03 01:47:56;;;;;;;5.68;3.38;;;;;;;11.34;100.00;96365.19;5004428;28;20076;-55
2022/01/03 01:50:27;;;;;;;5.63;3.42;;;;;;;11.44;100.00;96357.19;5005078;28;20070;-48
2022/01/03 01:52:56;;;;;;;4.53;3.30;;;;;;;11.33;100.00;96373.28;5002945;28;20536;-56
2022/01/03 01:55:25;;;;;;;4.35;3.30;;;;;;;11.39;100.00;96370.84;5006568;28;20080;-52
2022/01/03 01:57:57;;;;;;;5.25;3.20;;;;;;;11.42;100.00;96351.22;5004028;28;20479;-50
2022/01/03 02:00:27;;;;;;;3.88;3.20;;;;;;;11.36;100.00;96352.69;4997861;28;20085;-50
2022/01/03 02:03:08;;;;;;;4.95;3.05;;;;;;;11.40;100.00;96330.25;5001102;28;20061;-52
2022/01/03 02:05:40;;;;;;;4.40;3.22;;;;;;;11.58;100.00;96353.16;4999669;28;20088;-51
2022/01/03 02:08:13;;;;;;;3.90;3.25;;;;;;;11.40;100.00;96351.38;5015326;28;20555;-50
2022/01/03 02:10:43;;;;;;;3.10;2.70;;;;;;;11.31;100.00;96331.16;5002364;28;24075;-53
2022/01/03 02:13:14;;;;;;;4.45;3.03;;;;;;;11.40;100.00;96355.84;5006079;28;20064;-55
2022/01/03 02:15:46;;;;;;;;;;;;;;;11.50;100.00;96361.88;5001941;28;20064;-50
2022/01/03 02:18:14;;;;;;;4.50;2.95;;;;;;;11.46;100.00;96360.53;5001538;28;19968;-56
2022/01/03 02:20:44;;;;;;;5.88;3.53;;;;;;;11.55;100.00;96359.59;5002084;28;20093;-55
2022/01/03 02:23:13;;;;;;;7.07;2.83;;;;;;;11.39;100.00;96333.91;5000985;28;20072;-54
2022/01/03 02:25:41;;;;;;;4.15;3.08;;;;;;;11.43;100.00;96355.53;5004954;28;20080;-54
2022/01/03 02:28:10;;;;;;;3.47;2.70;;;;;;;11.48;100.00;96344.50;5006291;28;20093;-56
2022/01/03 02:30:39;;;;;;;4.65;3.10;;;;;;;11.51;100.00;96341.56;5005816;28;20073;-51
2022/01/03 02:33:07;;;;;;;4.47;2.75;;;;;;;11.43;100.00;96334.41;5005159;28;20072;-48
2022/01/03 02:35:39;;;;;;;4.03;2.92;;;;;;;11.60;100.00;96340.66;5007439;28;20076;-52
2022/01/03 02:38:09;;;;;;;3.05;2.83;;;;;;;11.44;100.00;96345.81;5009190;28;20885;-50
2022/01/03 02:40:38;;;;;;;4.20;3.28;;;;;;;11.43;100.00;96341.50;5002251;28;20085;-52
2022/01/03 02:43:06;;;;;;;4.30;2.75;;;;;;;11.45;100.00;96350.09;5013444;28;20089;-53
2022/01/03 02:45:35;;;;;;;3.40;2.97;;;;;;;11.40;100.00;96329.44;5005489;28;20073;-53
2022/01/03 02:48:07;;;;;;;3.97;2.90;;;;;;;11.51;100.00;96333.66;5002624;28;20081;-53
2022/01/03 02:50:36;;;;;;;5.65;3.13;;;;;;;11.42;100.00;96335.38;5005604;28;20073;-51
2022/01/03 02:53:05;;;;;;;2.70;2.50;;;;;;;11.45;100.00;96336.88;5007317;28;20077;-56
2022/01/03 02:55:35;;;;;;;4.50;2.72;;;;;;;11.42;100.00;96351.22;5005289;28;20077;-52
2022/01/03 02:58:07;;;;;;;3.60;3.10;;;;;;;11.49;100.00;96360.19;5007214;28;20081;-53
2022/01/03 03:00:43;;;;;;;6.53;3.22;;;;;;;11.49;100.00;96349.63;5004655;28;20080;-55
2022/01/03 03:03:12;;;;;;;2.75;2.50;;;;;;;11.35;100.00;96342.25;5005219;28;20073;-52
2022/01/03 03:05:40;;;;;;;3.85;2.92;;;;;;;11.50;100.00;96353.13;5005577;28;20476;-55
2022/01/03 03:08:09;;;;;;;3.05;2.72;;;;;;;11.49;100.00;96349.63;5003704;28;20078;-51
2022/01/03 03:10:39;;;;;;;3.28;2.75;;;;;;;11.44;100.00;96349.28;4997511;28;20085;-53
2022/01/03 03:13:08;;;;;;;6.35;2.70;;;;;;;11.39;100.00;96330.44;5006110;28;20089;-55
2022/01/03 03:15:37;;;;;;;4.15;3.00;;;;;;;11.48;100.00;96341.88;5006657;28;20100;-49
2022/01/03 03:18:05;;;;;;;4.03;2.80;;;;;;;11.44;100.00;96337.88;5004544;28;20066;-51
2022/01/03 03:20:34;;;;;;;6.82;2.78;;;;;;;11.49;100.00;96336.41;5007816;28;20745;-53
2022/01/03 03:23:04;;;;;;;3.10;2.60;;;;;;;11.40;100.00;96326.78;5004528;28;20078;-53
2022/01/03 03:25:34;;;;;;;4.22;2.75;;;;;;;11.51;100.00;96344.22;5004157;28;20101;-53
2022/01/03 03:28:08;;;;;;;3.95;2.67;;;;;;;11.35;100.00;96339.59;5007877;28;20074;-58
2022/01/03 03:30:38;;;;;;;4.18;2.80;;;;;;;11.49;100.00;96338.22;5004383;28;20164;-56
2022/01/03 03:33:09;;;;;;;4.03;2.90;;;;;;;11.53;100.00;96351.00;5001939;28;20070;-55
2022/01/03 03:35:38;;;;;;;5.75;2.60;;;;;;;11.49;100.00;96351.44;5003088;28;20096;-53
2022/01/03 03:38:07;;;;;;;5.82;3.08;;;;;;;11.45;100.00;96358.84;5002172;28;20080;-52
2022/01/03 03:40:36;;;;;;;4.80;2.90;;;;;;;11.52;100.00;96348.50;5001894;28;20120;-53
2022/01/03 03:43:05;;;;;;;3.08;2.78;;;;;;;11.47;100.00;96367.44;5008942;28;20077;-49
2022/01/03 03:45:34;;;;;;;3.80;2.97;;;;;;;11.46;100.00;96347.31;5008899;28;20069;-57
2022/01/03 03:48:03;;;;;;;4.75;2.95;;;;;;;11.47;100.00;96370.09;5007318;28;20112;-54
2022/01/03 03:50:31;;;;;;;5.65;2.80;;;;;;;11.19;100.00;96361.44;5004903;28;20069;-51
2022/01/03 03:53:00;;;;;;;4.43;2.85;;;;;;;11.34;100.00;96356.44;5010577;28;20062;-54
2022/01/03 03:55:29;;;;;;;4.72;2.83;;;;;;;11.38;100.00;96366.53;5009209;28;20531;-53
2022/01/03 03:57:57;;;;;;;5.88;3.13;;;;;;;11.36;100.00;96362.41;5006951;28;20131;-57
2022/01/03 04:00:28;;;;;;;5.38;2.75;;;;;;;11.43;100.00;96370.56;5009545;28;20078;-59
2022/01/03 04:02:56;;;;;;;7.63;3.20;;;;;;;11.34;100.00;96369.63;5009131;28;20085;-58
2022/01/03 04:05:25;;;;;;;4.60;2.80;;;;;;;11.27;100.00;96376.50;5010992;28;20065;-55
2022/01/03 04:07:54;;;;;;;4.75;2.78;;;;;;;11.24;100.00;96374.16;5008296;28;20520;-54
2022/01/03 04:10:22;;;;;;;5.38;2.90;;;;;;;11.28;100.00;96380.78;5007431;28;20085;-55
2022/01/03 04:12:50;;;;;;;4.25;2.90;;;;;;;11.29;100.00;96379.84;5006275;28;21522;-56
2022/01/03 04:15:19;;;;;;;4.20;2.67;;;;;;;11.14;100.00;96371.59;5007975;28;20076;-56
2022/01/03 04:17:48;;;;;;;4.80;3.05;;;;;;;11.21;100.00;96393.75;5005667;28;20105;-56
2022/01/03 04:20:18;;;;;;;4.93;2.90;;;;;;;11.23;100.00;96381.25;5008647;28;20496;-55
2022/01/03 04:22:46;;;;;;;3.85;2.78;;;;;;;11.17;100.00;96382.69;5012193;28;20072;-55
2022/01/03 04:25:15;;;;;;;4.20;3.15;;;;;;;11.18;100.00;96386.16;5006398;28;20081;-56
2022/01/03 04:27:44;;;;;;;4.63;2.97;;;;;;;11.12;100.00;96376.22;5009488;28;20057;-57
2022/01/03 04:30:12;;;;;;;5.13;2.60;;;;;;;11.22;100.00;96387.53;5005324;28;20088;-57
2022/01/03 04:32:41;;;;;;;3.88;3.15;;;;;;;11.25;100.00;96389.88;5009186;28;20069;-54
2022/01/03 04:35:11;;;;;;;5.35;2.80;;;;;;;11.17;100.00;96373.94;5003475;28;20065;-57
2022/01/03 04:37:39;;;;;;;5.30;3.10;;;;;;;11.16;100.00;96396.88;5001532;28;20068;-52
2022/01/03 04:40:09;;;;;;;8.73;3.20;;;;;;;11.17;100.00;96395.06;5005127;28;20089;-55
2022/01/03 04:42:37;;;;;;;5.10;2.97;;;;;;;11.31;100.00;96393.69;5000993;28;20763;-55
2022/01/03 04:45:07;;;;;;;8.20;3.00;;;;;;;11.18;100.00;96391.44;5002147;28;20061;-56
2022/01/03 04:47:35;;;;;;;3.75;3.00;;;;;;;11.17;100.00;96387.97;5000436;28;20058;-57
2022/01/03 04:50:04;;;;;;;4.28;2.80;;;;;;;11.09;100.00;96379.16;5003282;28;20062;-56
2022/01/03 04:52:34;;;;;;;3.53;2.70;;;;;;;11.06;100.00;96406.66;5002671;28;20076;-61
2022/01/03 04:55:03;;;;;;;3.30;3.00;;;;;;;-146.19;100.00;58918.88;5005971;28;20153;-54
2022/01/03 04:57:31;;;;;;;6.88;3.20;;;;;;;11.18;100.00;96396.69;5001793;28;20496;-54
2022/01/03 05:00:00;;;;;;;5.28;3.05;;;;;;;11.11;100.00;96400.91;5003007;28;20779;-51
2022/01/03 05:02:28;;;;;;;5.80;3.00;;;;;;;11.06;100.00;96401.38;5004595;28;20069;-51
2022/01/03 05:04:57;;;;;;;4.85;2.80;;;;;;;11.08;100.00;96396.78;5002624;28;20073;-51
2022/01/03 05:07:25;;;;;;;4.93;2.88;;;;;;;11.13;100.00;96399.81;5002908;28;20085;-51
2022/01/03 05:09:55;;;;;;;6.07;3.20;;;;;;;11.05;100.00;96397.09;5004730;28;20073;-56
2022/01/03 05:12:23;;;;;;;5.97;3.00;;;;;;;-146.19;100.00;58918.88;5003969;28;20058;-53
2022/01/03 05:14:52;;;;;;;4.60;3.25;;;;;;;11.34;100.00;96410.06;5004413;28;20076;-60
2022/01/03 05:17:20;;;;;;;3.40;2.95;;;;;;;11.00;100.00;96395.88;5006239;28;20069;-50
2022/01/03 05:19:49;;;;;;;5.25;2.80;;;;;;;11.02;100.00;96396.56;5004092;28;20069;-51
2022/01/03 05:22:17;;;;;;;5.65;3.20;;;;;;;11.04;100.00;96400.69;5018471;28;20564;-53
2022/01/03 05:24:45;;;;;;;4.45;2.85;;;;;;;10.99;100.00;96410.88;5003309;28;20066;-53
2022/01/03 05:27:15;;;;;;;4.78;3.05;;;;;;;10.88;100.00;96416.34;5002978;28;20089;-51
2022/01/03 05:29:44;;;;;;;5.75;3.00;;;;;;;10.94;100.00;96415.75;5007168;28;20062;-52
2022/01/03 05:32:13;;;;;;;7.20;3.30;;;;;;;10.97;100.00;96414.63;5001863;28;20467;-53
2022/01/03 05:34:41;;;;;;;4.30;3.00;;;;;;;10.89;100.00;96421.47;5003392;28;20615;-53
2022/01/03 05:37:10;;;;;;;7.07;2.97;;;;;;;10.86;100.00;96421.75;5012513;28;20101;-58
2022/01/03 05:39:38;;;;;;;4.95;3.17;;;;;;;10.99;100.00;96418.78;5001217;28;20062;-51
2022/01/03 05:42:07;;;;;;;5.57;2.90;;;;;;;10.90;100.00;96428.41;5006293;28;20046;-50
2022/01/03 05:44:37;;;;;;;10.70;3.75;;;;;;;10.98;100.00;96422.41;5002505;28;20089;-50
2022/01/03 05:47:06;;;;;;;6.03;3.55;;;;;;;10.96;100.00;96431.44;5002205;28;20492;-53
2022/01/03 05:49:34;;;;;;;4.03;2.80;;;;;;;10.96;100.00;96418.25;5010105;28;20570;-55
2022/01/03 05:52:03;;;;;;;5.60;3.20;;;;;;;11.03;100.00;96414.88;5003316;28;20456;-52
2022/01/03 05:54:32;;;;;;;4.88;2.80;;;;;;;11.08;100.00;96415.28;5003931;28;20084;-50
2022/01/03 05:57:02;;;;;;;6.78;2.92;;;;;;;11.06;100.00;96424.31;5003987;28;20131;-50
2022/01/03 05:59:30;;;;;;;5.28;3.08;;;;;;;11.06;100.00;96416.38;5001195;28;20077;-50
2022/01/03 06:02:00;;;;;;;4.72;3.00;;;;;;;11.16;100.00;96425.91;5008096;28;20464;-53
2022/01/03 06:04:38;;;;;;;5.20;2.80;;;;;;;10.90;100.00;96420.50;5008367;28;20400;-51
2022/01/03 06:07:08;;;;;;;5.82;3.00;;;;;;;11.14;100.00;96422.56;5006873;28;20065;-52
2022/01/03 06:09:37;;;;;;;5.03;3.00;;;;;;;10.96;100.00;96421.72;5010384;28;20076;-50
2022/01/03 06:12:06;;;;;;;6.45;3.10;;;;;;;10.98;100.00;96421.56;5006193;28;20073;-53
2022/01/03 06:14:35;;;;;;;5.57;2.90;;;;;;;10.99;100.00;96420.59;5007273;28;20100;-52
2022/01/03 06:17:06;;;;;;;4.82;3.22;;;;;;;11.14;100.00;96424.38;5006583;28;21014;-52
2022/01/03 06:19:35;;;;;;;3.95;2.90;;;;;;;10.95;100.00;96427.16;5007464;28;20088;-49
2022/01/03 06:22:04;;;;;;;3.97;2.88;;;;;;;11.04;100.00;96421.78;5009094;28;20485;-52
2022/01/03 06:24:33;;;;;;;6.10;3.03;;;;;;;10.92;100.00;96415.91;5007490;28;20072;-53
2022/01/03 06:27:02;;;;;;;4.47;3.10;;;;;;;10.88;100.00;96425.09;5004006;28;20076;-56
2022/01/03 06:29:30;;;;;;;9.20;3.70;;;;;;;10.86;100.00;96413.03;5006210;28;20531;-53
2022/01/03 06:31:59;;;;;;;4.65;3.00;;;;;;;10.74;100.00;96425.59;5009493;28;20069;-49
2022/01/03 06:34:29;;;;;;;5.00;3.20;;;;;;;10.84;100.00;96425.53;5001096;28;20062;-54
2022/01/03 06:36:58;;;;;;;5.90;3.28;;;;;;;10.87;100.00;96422.59;5010721;28;20085;-51
2022/01/03 06:39:27;;;;;;;4.90;2.85;;;;;;;10.90;100.00;96424.94;5006521;28;20508;-57
2022/01/03 06:41:55;;;;;;;6.22;3.00;;;;;;;10.75;100.00;96405.31;5005813;28;20315;-52
2022/01/03 06:44:24;;;;;;;6.22;3.20;;;;;;;10.86;100.00;96415.66;5005153;28;20069;-54
2022/01/03 06:46:52;;;;;;;6.10;3.30;;;;;;;10.95;100.00;96416.59;5007671;28;20072;-50
2022/01/03 06:49:20;;;;;;;5.07;2.95;;;;;;;10.92;100.00;96417.72;5012216;28;20085;-51
2022/01/03 06:51:50;;;;;;;4.38;3.10;;;;;;;10.94;100.00;96426.28;5013769;28;20061;-51
2022/01/03 06:54:19;;;;;;;5.47;3.13;;;;;;;10.78;100.00;96420.84;5004304;28;20072;-53
2022/01/03 06:56:47;;;;;;;4.20;3.03;;;;;;;10.85;100.00;96430.66;5008040;28;20505;-55
2022/01/03 06:59:15;;;;;;;6.97;3.20;;;;;;;10.76;100.00;96436.81;5006321;28;20065;-53
2022/01/03 07:01:44;;;;;;;6.75;3.40;;;;;;;10.81;100.00;96428.47;5003478;28;20073;-51
2022/01/03 07:04:12;;;;;;;6.88;3.20;;;;;;;10.87;100.00;96438.41;5012992;28;20672;-56
2022/01/03 07:06:41;;;;;;;6.55;3.05;;;;;;;10.76;100.00;96438.63;5006655;28;20524;-55
2022/01/03 07:09:10;;;;;;;7.47;3.42;;;;;;;10.82;100.00;96436.22;5006936;28;20511;-50
2022/01/03 07:11:39;;;;;;;7.95;3.40;;;;;;;10.81;100.00;96436.41;5009994;28;20072;-50
2022/01/03 07:19:36;;;;;;;4.32;2.80;;;;;;;10.81;100.00;96417.94;5005224;28;20086;-53
2022/01/03 07:22:05;;;;;;;6.38;3.28;;;;;;;10.97;100.00;96419.91;5008916;28;20082;-51
2022/01/03 07:24:36;;;;;;;3.13;2.80;;;;;;;10.77;100.00;96424.44;5004947;28;20065;-52
2022/01/03 07:27:06;;;;;;;4.80;2.75;;;;;;;10.94;100.00;96431.56;5014860;28;20078;-53
2022/01/03 07:29:34;;;;;;;4.68;2.72;;;;;;;10.90;100.00;96422.31;5003685;28;20073;-51
2022/01/03 07:32:04;;;;;;;7.70;3.30;;;;;;;10.90;100.00;96428.41;5001091;28;20069;-52
2022/01/03 07:34:32;;;;;;;2.97;2.70;;;;;;;10.98;100.00;96419.78;5005497;28;20515;-59
2022/01/03 07:37:01;;;;;;;5.43;3.10;;;;;;;10.99;100.00;96424.06;5004937;28;20483;-50
2022/01/03 07:39:31;;;;;;;5.70;2.97;;;;;;;11.00;100.00;96438.91;5005992;28;20071;-55
2022/01/03 07:42:01;;;;;;;5.22;2.90;;;;;;;11.08;100.00;96427.59;5006822;28;20142;-51
2022/01/03 07:44:29;;;;;;;6.22;2.80;;;;;;;11.05;100.00;96417.38;5003329;28;20555;-52
2022/01/03 07:46:58;;;;;;;4.10;3.10;;;;;;;10.93;100.00;96437.84;5004731;28;20077;-58
2022/01/03 07:49:27;;;;;;;7.72;3.00;;;;;;;11.05;100.00;96431.41;5004888;28;20092;-58
2022/01/03 07:51:56;;;;;;;3.45;3.00;;;;;;;11.01;100.00;96419.47;5005063;28;20095;-48
2022/01/03 07:54:25;;;;;;;8.82;2.97;;;;;;;11.23;100.00;96439.34;5010722;28;20070;-56
2022/01/03 07:56:53;;;;;;;3.38;2.83;;;;;;;11.10;100.00;96431.75;5006851;28;20499;-54
2022/01/03 07:59:23;;;;;;;5.47;2.90;;;;;;;11.09;100.00;96422.19;5006465;28;20061;-53
2022/01/03 08:01:51;;;;;;;5.07;2.83;;;;;;;11.19;100.00;96434.50;5010692;28;20069;-54
2022/01/03 08:04:20;;;;;;;3.85;3.08;;;;;;;11.12;100.00;96429.81;5008449;28;20123;-50
2022/01/03 08:06:48;;;;;;;5.15;2.80;;;;;;;11.14;100.00;96421.75;5003889;28;20214;-56
2022/01/03 08:09:17;;;;;;;6.13;2.72;;;;;;;11.00;100.00;96435.44;5010666;28;20501;-51
2022/01/03 08:11:45;;;;;;;5.07;2.60;;;;;;;11.05;100.00;96431.41;5002703;28;20062;-52
2022/01/03 08:14:13;;;;;;;6.32;3.20;;;;;;;11.16;100.00;96438.28;5005337;28;20089;-50
2022/01/03 08:16:43;;;;;;;3.30;2.78;;;;;;;11.07;100.00;96434.69;5004358;28;20139;-54
2022/01/03 08:19:12;;;;;;;4.95;3.00;;;;;;;11.13;100.00;96439.38;5008409;28;20111;-51
2022/01/03 08:21:40;;;;;;;4.47;2.72;;;;;;;11.19;100.00;96439.78;5005094;28;20069;-57
2022/01/03 08:24:09;;;;;;;3.83;2.83;;;;;;;11.13;100.00;96446.47;5002473;28;20460;-53
2022/01/03 08:26:38;;;;;;;3.50;2.80;;;;;;;11.03;100.00;96449.16;5003543;28;20081;-50
2022/01/03 08:29:06;;;;;;;3.85;2.90;;;;;;;11.23;100.00;96436.69;5004517;28;20532;-48
2022/01/03 08:31:36;;;;;;;8.05;2.97;;;;;;;11.15;100.00;96429.53;5004054;28;20092;-51
2022/01/03 08:34:07;;;;;;;5.55;2.88;;;;;;;11.29;100.00;96441.38;5008175;28;20458;-53
2022/01/03 08:36:35;;;;;;;6.78;3.00;;;;;;;11.17;100.00;96434.66;5009604;28;20102;-53
2022/01/03 08:39:05;;;;;;;6.55;2.90;;;;;;;11.16;100.00;96427.72;5004886;28;20076;-58
2022/01/03 08:41:34;;;;;;;7.05;3.00;;;;;;;11.29;100.00;96425.53;5006318;28;20061;-53
2022/01/03 08:44:02;;;;;;;6.57;3.00;;;;;;;11.18;100.00;96428.38;5004393;28;20089;-50
2022/01/03 08:46:30;;;;;;;7.57;2.70;;;;;;;11.16;100.00;96439.09;5002936;28;20077;-51
2022/01/03 08:48:59;;;;;;;3.45;2.50;;;;;;;11.09;100.00;96432.75;5011759;28;20085;-51
2022/01/03 08:51:29;;;;;;;6.40;2.90;;;;;;;11.19;100.00;96439.78;5010130;28;20069;-53
2022/01/03 08:53:57;;;;;;;5.93;2.60;;;;;;;11.40;100.00;96440.34;5007129;28;20089;-54
2022/01/03 08:56:26;;;;;;;2.67;2.47;;;;;;;11.32;100.00;96437.59;5008417;28;20070;-51
2022/01/03 08:58:54;;;;;;;6.03;3.05;;;;;;;11.33;100.00;96434.00;5001789;28;20061;-51
2022/01/03 09:01:22;;;;;;;6.72;2.60;;;;;;;11.34;100.00;96425.09;5004770;28;20084;-51
2022/01/03 09:03:51;;;;;;;7.20;3.10;;;;;;;11.39;100.00;96433.41;5007369;28;21499;-57
2022/01/03 09:06:20;;;;;;;5.55;2.50;;;;;;;11.58;100.00;96446.44;5003022;28;20069;-54
2022/01/03 09:08:49;;;;;;;7.40;2.95;;;;;;;11.43;100.00;96437.41;5004394;28;20133;-54
2022/01/03 09:11:18;;;;;;;3.63;2.50;;;;;;;11.35;100.00;96443.41;5010183;28;20072;-54
2022/01/03 09:13:46;;;;;;;6.72;3.10;;;;;;;11.34;100.00;96428.53;5004372;28;20066;-51
2022/01/03 09:16:15;;;;;;;3.90;2.72;;;;;;;11.37;100.00;96438.00;5002441;28;20085;-50
2022/01/03 09:18:44;;;;;;;2.95;2.45;;;;;;;11.38;100.00;96432.53;5007491;28;20077;-48
2022/01/03 09:21:12;;;;;;;4.38;2.92;;;;;;;11.57;100.00;96439.50;4999693;28;20065;-53
2022/01/03 09:23:48;;;;;;;4.30;2.50;;;;;;;11.56;100.00;96448.41;5003447;28;20077;-54
2022/01/03 09:29:05;;;;;;;3.92;2.60;;;;;;;11.56;100.00;96439.63;5000111;28;20061;-52
2022/01/03 09:31:35;;;;;;;5.20;2.70;;;;;;;11.56;100.00;96437.00;5005030;28;20516;-51
2022/01/03 09:34:05;;;;;;;8.07;2.92;;;;;;;11.69;100.00;96440.09;5006494;28;20086;-56
2022/01/03 09:36:34;;;;;;;2.97;2.47;;;;;;;11.53;100.00;96454.00;5007810;28;20078;-51
2022/01/03 09:39:04;;;;;;;3.38;2.70;;;;;;;11.70;100.00;96439.13;5009693;28;20077;-53
2022/01/03 09:41:34;;;;;;;5.97;2.70;;;;;;;11.70;100.00;96430.34;5005523;28;20806;-52
2022/01/03 09:44:05;;;;;;;4.53;2.70;;;;;;;11.77;100.00;96432.25;5006877;28;20486;-52
2022/01/03 09:46:36;;;;;;;4.55;2.40;;;;;;;11.95;100.00;96434.06;5008162;28;20555;-53
2022/01/03 09:49:06;;;;;;;3.67;2.60;;;;;;;12.08;100.00;96435.31;5012280;28;20084;-53
2022/01/03 09:51:35;;;;;;;4.25;2.60;;;;;;;11.95;100.00;96434.91;5007377;28;20050;-58
2022/01/03 09:54:05;;;;;;;6.20;2.47;;;;;;;11.94;100.00;96427.97;5008321;28;20069;-53
2022/01/03 09:56:37;;;;;;;6.15;2.80;;;;;;;11.84;100.00;96414.84;5006244;28;20141;-54
2022/01/03 09:59:06;;;;;;;5.90;2.50;;;;;;;11.95;100.00;96431.44;5003792;28;20085;-53
2022/01/03 10:01:41;;;;;;;4.20;2.50;;;;;;;11.96;100.00;96431.25;5008241;28;20074;-52
2022/01/03 10:04:11;;;;;;;4.03;2.43;;;;;;;12.07;100.00;96427.53;5008457;28;20081;-54
2022/01/03 10:06:40;;;;;;;2.45;2.25;;;;;;;11.97;100.00;96421.50;5014685;28;20484;-50
2022/01/03 10:09:09;;;;;;;2.83;2.20;;;;;;;11.85;100.00;96408.56;5006700;28;20061;-53
2022/01/03 10:11:39;;;;;;;4.47;2.28;;;;;;;11.96;100.00;96390.78;5009496;28;20073;-57
2022/01/03 10:14:11;;;;;;;7.05;2.55;;;;;;;12.04;100.00;96407.56;5007757;28;21224;-53
2022/01/03 10:16:40;;;;;;;3.10;2.10;;;;;;;12.01;100.00;96396.44;5005380;28;20085;-50
2022/01/03 10:19:16;;;;;;;4.28;2.33;;;;;;;12.18;100.00;96386.78;5011172;28;20112;-51
2022/01/03 10:21:47;;;;;;;3.08;2.20;;;;;;;12.03;100.00;96384.72;5008523;28;20066;-51
2022/01/03 10:24:16;;;;;;;7.60;2.40;;;;;;;12.08;100.00;96386.94;5006309;28;20077;-49
2022/01/03 10:26:54;;;;;;;2.90;2.30;;;;;;;12.10;100.00;96374.38;5005666;28;20070;-50
2022/01/03 10:29:25;;;;;;;5.10;2.65;;;;;;;12.17;100.00;96406.28;5014132;28;20187;-49
2022/01/03 10:31:55;;;;;;;7.15;2.50;;;;;;;12.25;100.00;96395.75;5001158;28;20539;-51
2022/01/03 10:34:24;;;;;;;3.80;2.10;;;;;;;12.21;100.00;96389.13;5002171;28;20551;-49
2022/01/03 10:36:54;;;;;;;6.80;2.50;;;;;;;12.28;100.00;96398.91;5010371;28;20088;-52
2022/01/03 10:39:25;;;;;;;5.05;2.10;;;;;;;12.28;100.00;96395.44;5006775;28;20575;-54
2022/01/03 10:42:13;;;;;;;3.53;2.20;;;;;;;12.28;100.00;96398.09;5008736;28;20066;-53
2022/01/03 10:44:42;;;;;;;3.55;2.38;;;;;;;12.30;100.00;96380.25;5005949;28;20080;-54
2022/01/03 10:47:13;;;;;;;2.90;2.17;;;;;;;12.27;100.00;96391.97;5005243;28;20065;-53
2022/01/03 10:49:43;;;;;;;3.03;2.33;;;;;;;12.41;100.00;96377.34;5012344;28;20217;-52
2022/01/03 10:52:17;;;;;;;5.72;2.65;;;;;;;12.24;100.00;96375.59;5014368;28;20072;-51
2022/01/03 10:55:07;;;;;;;6.70;2.67;;;;;;;12.32;100.00;96371.19;5007234;28;20077;-53
2022/01/03 10:57:55;;;;;;;3.90;2.28;;;;;;;12.23;100.00;96380.06;5007347;28;20539;-53
2022/01/03 11:00:28;;;;;;;3.88;2.50;;;;;;;12.37;100.00;96376.00;5010804;28;20049;-50
2022/01/03 11:03:20;;;;;;;5.63;2.53;;;;;;;12.49;100.00;96365.97;5001005;28;20084;-51
2022/01/03 11:05:52;;;;;;;4.88;2.67;;;;;;;12.59;100.00;96369.31;5010476;28;20057;-52
2022/01/03 11:11:09;;;;;;;3.63;2.30;;;;;;;12.41;100.00;96372.06;5004880;28;20472;-52
2022/01/03 11:13:43;;;;;;;2.80;2.20;;;;;;;12.49;100.00;96344.81;5003875;28;20542;-53
2022/01/03 11:16:12;;;;;;;4.30;2.10;;;;;;;12.54;100.00;96353.09;5009735;28;20085;-50
2022/01/03 11:18:45;;;;;;;6.20;2.53;;;;;;;12.47;100.00;96344.97;5004862;28;20073;-52
2022/01/03 11:21:16;;;;;;;2.20;2.03;;;;;;;12.39;100.00;96344.97;5012347;28;20072;-50
2022/01/03 11:23:46;;;;;;;4.80;2.38;;;;;;;12.48;100.00;96361.66;5007349;28;20080;-53
2022/01/03 11:26:16;;;;;;;5.80;2.33;;;;;;;12.44;100.00;96347.94;5011837;28;20308;-52
2022/01/03 11:28:46;;;;;;;2.55;2.33;;;;;;;12.44;100.00;96355.88;5014277;28;20057;-49
2022/01/03 11:31:15;;;;;;;;;;;;;;;12.61;100.00;96354.13;5007341;28;20108;-48
2022/01/03 11:33:46;;;;;;;4.30;2.20;;;;;;;12.62;100.00;96353.13;5003420;28;19961;-48
2022/01/03 11:36:35;;;;;;;4.80;2.20;;;;;;;12.55;100.00;96341.53;5010664;28;20092;-48
2022/01/03 11:39:07;;;;;;;4.20;2.40;;;;;;;12.61;100.00;96332.13;5005867;28;20061;-51
2022/01/03 11:41:53;;;;;;;2.45;2.00;;;;;;;12.47;100.00;96347.63;5004418;28;20069;-49
2022/01/03 11:44:23;;;;;;;4.55;2.10;;;;;;;12.61;100.00;96348.84;5007611;28;20084;-55
2022/01/03 11:46:51;;;;;;;2.63;2.10;;;;;;;12.41;100.00;96358.81;5004738;28;20062;-50
2022/01/03 11:49:20;;;;;;;4.88;2.20;;;;;;;12.49;100.00;96345.66;5013394;28;20061;-49
2022/01/03 11:51:49;;;;;;;3.40;2.30;;;;;;;12.44;100.00;96333.88;5004886;28;21344;-56